Statesville, NC (28677)

2:09 AM EDT on September 16, 2014 (GMT -0400)
Amity Hill Road | Change Station
CLOSE
Current Station
Personal Weather Station
Location: Statesville, NC
Elevation: 873 ft
Nearby Weather Stations

Elev 873 ft 35.71 °N, 80.84 °W | Updated 3 hours ago

Overcast
Overcast
68.0 °F
Feels Like 68.0 °F
N
3.8
Wind Variable Wind from SE
Gusts 3.8 mph

Today
High -- | Low -- °F
--% Chance of Precip.
Yesterday
High -- | Low -- °F
Precip. -- in
7:06 AM 7:29 PM
Waning Gibbous, 48% visible
Pressure 30.10 in
Visibility 3.0 miles
Clouds Overcast 500 ft
Dew Point 68 °F
Humidity 99%
Rainfall 0.00 in
Snow Depth Not available.
UV 0 out of 12
Pollen 7.40 out of 12
Ozone Good
PM2.5 Moderate
Flu Activity Not available.
METAR KSVH 160555Z AUTO 00000KT 3SM BR OVC005 19/19 A3010 RMK AO2 60003 T01910189 10204 20190

More Conditions Fewer Conditions

Pressure 30.10 in
Visibility 3.0 miles
Clouds Overcast 500 ft
Dew Point 68 °F
Humidity 99%
Rainfall 0.00 in
Snow Depth Not available.
UV 0 out of 12
Pollen 7.40 out of 12
Ozone Good
PM2.5 Moderate
Flu Activity Not available.
METAR KSVH 160555Z AUTO 00000KT 3SM BR OVC005 19/19 A3010 RMK AO2 60003 T01910189 10204 20190

More Conditions Fewer Conditions

10-Day Weather Forecast

Almanac

Astronomy

Sep. 16, 2014 Rise Set
Actual Time 7:06 AM EDT 7:29 PM EDT
Civil Twilight 6:41 AM EDT 7:54 PM EDT
Nautical Twilight 6:11 AM EDT 8:24 PM EDT
Astronomical Twilight 5:40 AM EDT 8:55 PM EDT
Moon 12:23 AM EDT 2:43 PM EDT
Length of Visible Light 13h 13m
Length of Day
12h 22m
Tomorrow will be 2m 14s shorter.
Waning Gibbous, 48% of the Moon is Illuminated
Today
Waning Gibbous
Sep 24
New
Oct 1
First Quarter
Oct 8
Full
Oct 15
Last Quarter

Today's Extremes

State Highs State Lows

Community

WunderPhotos

Upload Photos

1,753,702 photos uploaded!

Nearby

Air Quality

  Air Quality AQ Index Pollutant
Yesterday Good
PM2.5
Yesterday Good
OZONE
Current Moderate
PM2.5
Current Good
OZONE
Tuesday Good
OZONE
Tuesday Good
PM2.5
Wednesday Good
OZONE
Wednesday Good
PM2.5
Thursday Good
OZONE
Thursday Good
PM2.5

Snow Depth

Station Depth Elevation
No new snow has been reported.

Earthquake Activity

City Distance Mag. Time & Date
No recent earthquake activity has been reported nearby.
Minimum magnitude displayed is 2.5.

Coastal Water Temperatures

Place Temperature
No Stations Reporting

Nearby Weather Stations